sensor_id;sensor_type;location;lat;lon;timestamp;pressure;altitude;pressure_sealevel;temperature;humidity
22550;BME280;11441;57.164;-2.120;2022-07-15T00:02:09;101540.31;;;15.29;100.00
22550;BME280;11441;57.164;-2.120;2022-07-15T00:04:37;101540.94;;;15.19;100.00
22550;BME280;11441;57.164;-2.120;2022-07-15T00:07:05;101532.84;;;15.10;100.00
22550;BME280;11441;57.164;-2.120;2022-07-15T00:09:33;101531.34;;;15.16;100.00
22550;BME280;11441;57.164;-2.120;2022-07-15T00:12:19;101532.09;;;15.13;100.00
22550;BME280;11441;57.164;-2.120;2022-07-15T00:14:45;101530.56;;;15.16;100.00
22550;BME280;11441;57.164;-2.120;2022-07-15T00:17:13;101522.97;;;14.93;100.00
22550;BME280;11441;57.164;-2.120;2022-07-15T00:19:40;101527.72;;;14.93;100.00
22550;BME280;11441;57.164;-2.120;2022-07-15T00:22:26;101529.03;;;14.79;100.00
22550;BME280;11441;57.164;-2.120;2022-07-15T00:24:53;101525.47;;;14.79;100.00
22550;BME280;11441;57.164;-2.120;2022-07-15T00:27:51;101517.78;;;15.11;100.00
22550;BME280;11441;57.164;-2.120;2022-07-15T00:30:19;101510.47;;;15.03;100.00
22550;BME280;11441;57.164;-2.120;2022-07-15T00:32:46;101509.75;;;14.86;100.00
22550;BME280;11441;57.164;-2.120;2022-07-15T00:35:14;101502.88;;;14.80;100.00
22550;BME280;11441;57.164;-2.120;2022-07-15T00:38:00;101506.78;;;14.76;100.00
22550;BME280;11441;57.164;-2.120;2022-07-15T00:40:27;101498.38;;;14.92;100.00
22550;BME280;11441;57.164;-2.120;2022-07-15T00:42:55;101496.91;;;15.17;100.00
22550;BME280;11441;57.164;-2.120;2022-07-15T00:45:24;101505.91;;;15.34;100.00
22550;BME280;11441;57.164;-2.120;2022-07-15T00:47:55;101495.31;;;15.39;100.00
22550;BME280;11441;57.164;-2.120;2022-07-15T00:50:26;101500.38;;;15.34;100.00
22550;BME280;11441;57.164;-2.120;2022-07-15T00:53:07;101489.25;;;15.34;100.00
22550;BME280;11441;57.164;-2.120;2022-07-15T00:55:40;101499.03;;;15.47;100.00
22550;BME280;11441;57.164;-2.120;2022-07-15T00:58:28;101492.69;;;15.46;100.00
22550;BME280;11441;57.164;-2.120;2022-07-15T01:00:56;101487.03;;;15.43;100.00
22550;BME280;11441;57.164;-2.120;2022-07-15T01:06:30;101487.69;;;15.56;100.00
22550;BME280;11441;57.164;-2.120;2022-07-15T01:08:57;101480.56;;;15.58;100.00
22550;BME280;11441;57.164;-2.120;2022-07-15T01:11:25;101487.50;;;15.45;100.00
22550;BME280;11441;57.164;-2.120;2022-07-15T01:13:52;101492.28;;;15.48;100.00
22550;BME280;11441;57.164;-2.120;2022-07-15T01:16:19;101489.66;;;15.55;100.00
22550;BME280;11441;57.164;-2.120;2022-07-15T01:18:47;101489.72;;;15.59;100.00
22550;BME280;11441;57.164;-2.120;2022-07-15T01:21:14;101488.16;;;15.61;100.00
22550;BME280;11441;57.164;-2.120;2022-07-15T01:23:43;101481.72;;;15.34;100.00
22550;BME280;11441;57.164;-2.120;2022-07-15T01:26:21;101483.34;;;15.35;100.00
22550;BME280;11441;57.164;-2.120;2022-07-15T01:28:48;101488.59;;;15.40;100.00
22550;BME280;11441;57.164;-2.120;2022-07-15T01:31:16;101481.50;;;15.43;100.00
22550;BME280;11441;57.164;-2.120;2022-07-15T01:34:02;101482.56;;;15.58;100.00
22550;BME280;11441;57.164;-2.120;2022-07-15T01:36:30;101474.78;;;15.67;100.00
22550;BME280;11441;57.164;-2.120;2022-07-15T01:38:59;101468.72;;;15.61;100.00
22550;BME280;11441;57.164;-2.120;2022-07-15T01:41:47;101473.88;;;15.59;100.00
22550;BME280;11441;57.164;-2.120;2022-07-15T01:44:36;101472.50;;;15.50;100.00
22550;BME280;11441;57.164;-2.120;2022-07-15T01:47:04;101469.78;;;15.30;100.00
22550;BME280;11441;57.164;-2.120;2022-07-15T01:49:33;101466.88;;;15.23;100.00
22550;BME280;11441;57.164;-2.120;2022-07-15T01:52:10;101467.63;;;15.43;100.00
22550;BME280;11441;57.164;-2.120;2022-07-15T01:54:39;101460.34;;;15.35;100.00
22550;BME280;11441;57.164;-2.120;2022-07-15T01:57:07;101462.13;;;15.23;100.00
22550;BME280;11441;57.164;-2.120;2022-07-15T01:59:54;101454.53;;;15.20;100.00
22550;BME280;11441;57.164;-2.120;2022-07-15T02:02:30;101443.91;;;15.03;100.00
22550;BME280;11441;57.164;-2.120;2022-07-15T02:04:58;101442.44;;;15.09;100.00
22550;BME280;11441;57.164;-2.120;2022-07-15T02:07:25;101438.81;;;15.05;100.00
22550;BME280;11441;57.164;-2.120;2022-07-15T02:09:52;101438.53;;;14.90;100.00
22550;BME280;11441;57.164;-2.120;2022-07-15T02:12:19;101432.97;;;14.90;100.00
22550;BME280;11441;57.164;-2.120;2022-07-15T02:14:51;101425.19;;;14.96;100.00
22550;BME280;11441;57.164;-2.120;2022-07-15T02:17:18;101431.47;;;15.16;100.00
22550;BME280;11441;57.164;-2.120;2022-07-15T02:19:46;101417.47;;;15.32;100.00
22550;BME280;11441;57.164;-2.120;2022-07-15T02:22:13;101427.53;;;15.40;100.00
22550;BME280;11441;57.164;-2.120;2022-07-15T02:24:40;101420.63;;;15.07;100.00
22550;BME280;11441;57.164;-2.120;2022-07-15T02:27:07;101422.13;;;15.24;100.00
22550;BME280;11441;57.164;-2.120;2022-07-15T02:29:34;101426.34;;;15.18;100.00
22550;BME280;11441;57.164;-2.120;2022-07-15T02:32:02;101426.16;;;15.31;100.00
22550;BME280;11441;57.164;-2.120;2022-07-15T02:34:46;101420.06;;;15.44;100.00
22550;BME280;11441;57.164;-2.120;2022-07-15T02:37:13;101417.41;;;15.52;100.00
22550;BME280;11441;57.164;-2.120;2022-07-15T02:39:40;101421.88;;;15.33;100.00
22550;BME280;11441;57.164;-2.120;2022-07-15T02:42:26;101417.41;;;15.52;100.00
22550;BME280;11441;57.164;-2.120;2022-07-15T02:44:53;101415.41;;;15.49;100.00
22550;BME280;11441;57.164;-2.120;2022-07-15T02:47:20;101410.13;;;15.20;100.00
22550;BME280;11441;57.164;-2.120;2022-07-15T02:49:48;101410.06;;;15.17;100.00
22550;BME280;11441;57.164;-2.120;2022-07-15T02:52:14;101410.00;;;15.13;100.00
22550;BME280;11441;57.164;-2.120;2022-07-15T02:54:46;101408.13;;;15.17;100.00
22550;BME280;11441;57.164;-2.120;2022-07-15T02:57:32;101402.03;;;15.31;100.00
22550;BME280;11441;57.164;-2.120;2022-07-15T03:00:00;101405.84;;;15.00;100.00
22550;BME280;11441;57.164;-2.120;2022-07-15T03:02:31;101408.72;;;15.07;100.00
22550;BME280;11441;57.164;-2.120;2022-07-15T03:05:01;101401.50;;;15.02;100.00
22550;BME280;11441;57.164;-2.120;2022-07-15T03:07:28;101400.41;;;15.07;100.00
22550;BME280;11441;57.164;-2.120;2022-07-15T03:10:15;101390.56;;;14.67;100.00
22550;BME280;11441;57.164;-2.120;2022-07-15T03:12:46;101391.13;;;14.99;100.00
22550;BME280;11441;57.164;-2.120;2022-07-15T03:15:13;101395.28;;;15.09;100.00
22550;BME280;11441;57.164;-2.120;2022-07-15T03:17:41;101391.97;;;15.23;100.00
22550;BME280;11441;57.164;-2.120;2022-07-15T03:20:26;101388.63;;;15.14;100.00
22550;BME280;11441;57.164;-2.120;2022-07-15T03:22:53;101384.06;;;15.25;100.00
22550;BME280;11441;57.164;-2.120;2022-07-15T03:25:20;101378.94;;;15.04;100.00
22550;BME280;11441;57.164;-2.120;2022-07-15T03:27:47;101378.53;;;15.02;100.00
22550;BME280;11441;57.164;-2.120;2022-07-15T03:30:14;101378.03;;;14.96;100.00
22550;BME280;11441;57.164;-2.120;2022-07-15T03:32:42;101379.69;;;15.01;100.00
22550;BME280;11441;57.164;-2.120;2022-07-15T03:35:09;101380.81;;;14.96;100.00
22550;BME280;11441;57.164;-2.120;2022-07-15T03:37:38;101375.09;;;14.89;100.00
22550;BME280;11441;57.164;-2.120;2022-07-15T03:40:05;101373.88;;;14.86;100.00
22550;BME280;11441;57.164;-2.120;2022-07-15T03:42:35;101382.88;;;15.03;100.00
22550;BME280;11441;57.164;-2.120;2022-07-15T03:45:02;101379.13;;;15.15;100.00
22550;BME280;11441;57.164;-2.120;2022-07-15T03:47:30;101378.50;;;15.25;100.00
22550;BME280;11441;57.164;-2.120;2022-07-15T03:49:59;101379.44;;;15.33;100.00
22550;BME280;11441;57.164;-2.120;2022-07-15T03:52:26;101380.19;;;15.30;100.00
22550;BME280;11441;57.164;-2.120;2022-07-15T03:54:53;101379.75;;;15.04;100.00
22550;BME280;11441;57.164;-2.120;2022-07-15T03:57:20;101374.81;;;15.17;100.00
22550;BME280;11441;57.164;-2.120;2022-07-15T03:59:47;101382.59;;;15.31;100.00
22550;BME280;11441;57.164;-2.120;2022-07-15T04:02:16;101382.22;;;15.33;100.00
22550;BME280;11441;57.164;-2.120;2022-07-15T04:04:43;101380.81;;;15.19;100.00
22550;BME280;11441;57.164;-2.120;2022-07-15T04:07:10;101377.59;;;15.17;100.00
22550;BME280;11441;57.164;-2.120;2022-07-15T04:09:37;101371.66;;;15.42;100.00
22550;BME280;11441;57.164;-2.120;2022-07-15T04:12:04;101378.63;;;15.32;100.00
22550;BME280;11441;57.164;-2.120;2022-07-15T04:14:37;101377.19;;;15.15;100.00
22550;BME280;11441;57.164;-2.120;2022-07-15T04:17:04;101369.28;;;15.17;100.00
22550;BME280;11441;57.164;-2.120;2022-07-15T04:19:35;101378.56;;;15.28;100.00
22550;BME280;11441;57.164;-2.120;2022-07-15T04:25:09;101370.00;;;15.37;100.00
22550;BME280;11441;57.164;-2.120;2022-07-15T04:27:37;101366.78;;;15.35;100.00
22550;BME280;11441;57.164;-2.120;2022-07-15T04:30:05;101367.91;;;15.31;100.00
22550;BME280;11441;57.164;-2.120;2022-07-15T04:32:42;101368.47;;;15.40;100.00
22550;BME280;11441;57.164;-2.120;2022-07-15T04:35:31;101368.22;;;15.25;100.00
22550;BME280;11441;57.164;-2.120;2022-07-15T04:38:02;101369.25;;;15.40;100.00
22550;BME280;11441;57.164;-2.120;2022-07-15T04:40:31;101369.31;;;15.44;100.00
22550;BME280;11441;57.164;-2.120;2022-07-15T04:43:05;101368.25;;;15.29;100.00
22550;BME280;11441;57.164;-2.120;2022-07-15T04:45:32;101366.00;;;15.35;100.00
22550;BME280;11441;57.164;-2.120;2022-07-15T04:48:00;101367.38;;;15.48;100.00
22550;BME280;11441;57.164;-2.120;2022-07-15T04:50:34;101353.97;;;15.27;100.00
22550;BME280;11441;57.164;-2.120;2022-07-15T04:53:13;101362.97;;;15.43;100.00
22550;BME280;11441;57.164;-2.120;2022-07-15T04:55:42;101363.03;;;15.47;100.00
22550;BME280;11441;57.164;-2.120;2022-07-15T04:58:09;101367.00;;;15.50;100.00
22550;BME280;11441;57.164;-2.120;2022-07-15T05:00:37;101362.16;;;15.43;100.00
22550;BME280;11441;57.164;-2.120;2022-07-15T05:03:08;101368.56;;;15.47;100.00
22550;BME280;11441;57.164;-2.120;2022-07-15T05:05:35;101358.09;;;15.37;100.00
22550;BME280;11441;57.164;-2.120;2022-07-15T05:08:02;101365.88;;;15.27;100.00
22550;BME280;11441;57.164;-2.120;2022-07-15T05:10:52;101361.66;;;15.37;100.00
22550;BME280;11441;57.164;-2.120;2022-07-15T05:13:19;101361.19;;;15.32;100.00
22550;BME280;11441;57.164;-2.120;2022-07-15T05:15:48;101346.88;;;15.30;100.00
22550;BME280;11441;57.164;-2.120;2022-07-15T05:18:20;101348.47;;;15.31;100.00
22550;BME280;11441;57.164;-2.120;2022-07-15T05:20:50;101345.88;;;15.41;100.00
22550;BME280;11441;57.164;-2.120;2022-07-15T05:23:17;101355.13;;;15.49;100.00
22550;BME280;11441;57.164;-2.120;2022-07-15T05:25:50;101354.47;;;15.59;100.00
22550;BME280;11441;57.164;-2.120;2022-07-15T05:28:17;101358.53;;;15.65;100.00
22550;BME280;11441;57.164;-2.120;2022-07-15T05:30:48;101343.16;;;15.72;100.00
22550;BME280;11441;57.164;-2.120;2022-07-15T05:33:16;101359.53;;;15.77;100.00
22550;BME280;11441;57.164;-2.120;2022-07-15T05:35:44;101354.03;;;15.80;100.00
22550;BME280;11441;57.164;-2.120;2022-07-15T05:38:19;101364.06;;;15.65;100.00
22550;BME280;11441;57.164;-2.120;2022-07-15T05:40:47;101362.97;;;15.70;100.00
22550;BME280;11441;57.164;-2.120;2022-07-15T05:43:14;101360.19;;;15.43;100.00
22550;BME280;11441;57.164;-2.120;2022-07-15T05:45:45;101357.88;;;15.49;100.00
22550;BME280;11441;57.164;-2.120;2022-07-15T05:48:12;101361.47;;;15.50;100.00
22550;BME280;11441;57.164;-2.120;2022-07-15T05:50:48;101348.56;;;15.61;100.00
22550;BME280;11441;57.164;-2.120;2022-07-15T05:53:16;101357.97;;;15.79;100.00
22550;BME280;11441;57.164;-2.120;2022-07-15T05:55:44;101350.97;;;15.89;100.00
22550;BME280;11441;57.164;-2.120;2022-07-15T05:58:16;101348.94;;;15.86;100.00
22550;BME280;11441;57.164;-2.120;2022-07-15T06:00:43;101346.16;;;15.86;100.00
22550;BME280;11441;57.164;-2.120;2022-07-15T06:03:10;101354.06;;;15.84;100.00
22550;BME280;11441;57.164;-2.120;2022-07-15T06:05:43;101347.72;;;15.83;100.00
22550;BME280;11441;57.164;-2.120;2022-07-15T06:08:11;101345.50;;;15.96;100.00
22550;BME280;11441;57.164;-2.120;2022-07-15T06:10:42;101355.50;;;16.01;100.00
22550;BME280;11441;57.164;-2.120;2022-07-15T06:13:09;101353.28;;;16.14;100.00
22550;BME280;11441;57.164;-2.120;2022-07-15T06:15:38;101349.94;;;16.01;100.00
22550;BME280;11441;57.164;-2.120;2022-07-15T06:18:07;101337.25;;;16.03;100.00
22550;BME280;11441;57.164;-2.120;2022-07-15T06:20:34;101340.94;;;16.11;100.00
22550;BME280;11441;57.164;-2.120;2022-07-15T06:23:01;101339.25;;;16.03;100.00
22550;BME280;11441;57.164;-2.120;2022-07-15T06:25:29;101341.56;;;15.97;100.00
22550;BME280;11441;57.164;-2.120;2022-07-15T06:27:56;101343.94;;;15.95;100.00
22550;BME280;11441;57.164;-2.120;2022-07-15T06:30:23;101333.59;;;15.96;100.00
22550;BME280;11441;57.164;-2.120;2022-07-15T06:32:50;101339.22;;;15.99;100.00
22550;BME280;11441;57.164;-2.120;2022-07-15T06:35:17;101339.72;;;15.78;100.00
22550;BME280;11441;57.164;-2.120;2022-07-15T06:37:44;101344.53;;;15.81;100.00
22550;BME280;11441;57.164;-2.120;2022-07-15T06:40:11;101336.88;;;15.75;100.00
22550;BME280;11441;57.164;-2.120;2022-07-15T06:42:38;101332.75;;;15.92;100.00
22550;BME280;11441;57.164;-2.120;2022-07-15T06:45:08;101345.28;;;15.78;100.00
22550;BME280;11441;57.164;-2.120;2022-07-15T06:47:41;101333.50;;;15.89;100.00
22550;BME280;11441;57.164;-2.120;2022-07-15T06:50:09;101339.63;;;16.01;100.00
22550;BME280;11441;57.164;-2.120;2022-07-15T06:52:40;101330.81;;;15.69;100.00
22550;BME280;11441;57.164;-2.120;2022-07-15T06:55:08;101341.13;;;15.69;100.00
22550;BME280;11441;57.164;-2.120;2022-07-15T06:57:35;101331.94;;;15.91;100.00
22550;BME280;11441;57.164;-2.120;2022-07-15T07:00:03;101331.59;;;15.66;100.00
22550;BME280;11441;57.164;-2.120;2022-07-15T07:02:49;101327.41;;;15.53;100.00
22550;BME280;11441;57.164;-2.120;2022-07-15T07:05:17;101323.34;;;15.73;100.00
22550;BME280;11441;57.164;-2.120;2022-07-15T07:07:44;101324.03;;;15.93;100.00
22550;BME280;11441;57.164;-2.120;2022-07-15T07:10:11;101333.91;;;16.21;100.00
22550;BME280;11441;57.164;-2.120;2022-07-15T07:12:40;101335.19;;;15.97;100.00
22550;BME280;11441;57.164;-2.120;2022-07-15T07:15:07;101335.03;;;16.13;100.00
22550;BME280;11441;57.164;-2.120;2022-07-15T07:17:51;101324.28;;;16.11;100.00
22550;BME280;11441;57.164;-2.120;2022-07-15T07:20:19;101327.97;;;15.65;100.00
22550;BME280;11441;57.164;-2.120;2022-07-15T07:22:46;101323.72;;;15.72;100.00
22550;BME280;11441;57.164;-2.120;2022-07-15T07:25:13;101327.47;;;15.83;100.00
22550;BME280;11441;57.164;-2.120;2022-07-15T07:27:40;101325.72;;;16.01;100.00
22550;BME280;11441;57.164;-2.120;2022-07-15T07:30:07;101318.84;;;16.22;100.00
22550;BME280;11441;57.164;-2.120;2022-07-15T07:32:34;101315.84;;;16.38;100.00
22550;BME280;11441;57.164;-2.120;2022-07-15T07:35:06;101318.47;;;16.24;100.00
22550;BME280;11441;57.164;-2.120;2022-07-15T07:37:52;101316.03;;;16.18;100.00
22550;BME280;11441;57.164;-2.120;2022-07-15T07:40:19;101316.41;;;16.17;100.00
22550;BME280;11441;57.164;-2.120;2022-07-15T07:42:46;101321.41;;;16.38;100.00
22550;BME280;11441;57.164;-2.120;2022-07-15T07:45:13;101325.25;;;16.26;100.00
22550;BME280;11441;57.164;-2.120;2022-07-15T07:47:40;101322.25;;;16.42;100.00
22550;BME280;11441;57.164;-2.120;2022-07-15T07:50:08;101321.56;;;16.52;100.00
22550;BME280;11441;57.164;-2.120;2022-07-15T07:52:53;101321.78;;;16.36;100.00
22550;BME280;11441;57.164;-2.120;2022-07-15T07:55:39;101301.16;;;16.03;100.00
22550;BME280;11441;57.164;-2.120;2022-07-15T07:58:06;101311.22;;;16.15;100.00
22550;BME280;11441;57.164;-2.120;2022-07-15T08:00:34;101308.09;;;16.20;100.00
22550;BME280;11441;57.164;-2.120;2022-07-15T08:03:01;101322.34;;;16.15;100.00
22550;BME280;11441;57.164;-2.120;2022-07-15T08:05:28;101324.31;;;16.15;100.00
22550;BME280;11441;57.164;-2.120;2022-07-15T08:08:09;101319.00;;;16.36;100.00
22550;BME280;11441;57.164;-2.120;2022-07-15T08:10:38;101309.50;;;16.37;100.00
22550;BME280;11441;57.164;-2.120;2022-07-15T08:13:12;101318.72;;;16.45;100.00
22550;BME280;11441;57.164;-2.120;2022-07-15T08:15:40;101318.00;;;16.18;100.00
22550;BME280;11441;57.164;-2.120;2022-07-15T08:18:07;101322.22;;;16.05;100.00
22550;BME280;11441;57.164;-2.120;2022-07-15T08:20:34;101313.00;;;16.00;100.00
22550;BME280;11441;57.164;-2.120;2022-07-15T08:23:03;101328.50;;;16.01;100.00
22550;BME280;11441;57.164;-2.120;2022-07-15T08:25:32;101324.81;;;16.24;100.00
22550;BME280;11441;57.164;-2.120;2022-07-15T08:28:00;101331.41;;;16.12;100.00
22550;BME280;11441;57.164;-2.120;2022-07-15T08:30:28;101339.66;;;16.05;100.00
22550;BME280;11441;57.164;-2.120;2022-07-15T08:32:57;101343.09;;;15.95;100.00
22550;BME280;11441;57.164;-2.120;2022-07-15T08:35:43;101331.34;;;16.05;100.00
22550;BME280;11441;57.164;-2.120;2022-07-15T08:38:10;101320.75;;;15.84;100.00
22550;BME280;11441;57.164;-2.120;2022-07-15T08:40:56;101308.81;;;16.14;100.00
22550;BME280;11441;57.164;-2.120;2022-07-15T08:43:24;101301.47;;;16.29;100.00
22550;BME280;11441;57.164;-2.120;2022-07-15T08:45:51;101309.84;;;16.32;100.00
22550;BME280;11441;57.164;-2.120;2022-07-15T08:48:24;101319.72;;;16.30;100.00
22550;BME280;11441;57.164;-2.120;2022-07-15T08:51:30;101321.50;;;16.45;100.00
22550;BME280;11441;57.164;-2.120;2022-07-15T08:53:59;101329.75;;;16.04;100.00
22550;BME280;11441;57.164;-2.120;2022-07-15T08:56:26;101325.28;;;15.96;100.00
22550;BME280;11441;57.164;-2.120;2022-07-15T08:59:12;101329.38;;;16.09;100.00
22550;BME280;11441;57.164;-2.120;2022-07-15T09:01:45;101321.97;;;16.17;100.00
22550;BME280;11441;57.164;-2.120;2022-07-15T09:04:13;101324.81;;;16.24;100.00
22550;BME280;11441;57.164;-2.120;2022-07-15T09:06:46;101329.75;;;16.38;100.00
22550;BME280;11441;57.164;-2.120;2022-07-15T09:09:34;101329.97;;;16.22;100.00
22550;BME280;11441;57.164;-2.120;2022-07-15T09:12:10;101327.00;;;16.42;100.00
22550;BME280;11441;57.164;-2.120;2022-07-15T09:14:42;101336.34;;;16.26;100.00
22550;BME280;11441;57.164;-2.120;2022-07-15T09:20:08;101334.78;;;16.25;100.00
22550;BME280;11441;57.164;-2.120;2022-07-15T09:22:55;101328.59;;;16.39;100.00
22550;BME280;11441;57.164;-2.120;2022-07-15T09:25:26;101332.19;;;16.43;100.00
22550;BME280;11441;57.164;-2.120;2022-07-15T09:27:54;101333.56;;;16.60;100.00
22550;BME280;11441;57.164;-2.120;2022-07-15T09:30:23;101326.88;;;16.68;100.00
22550;BME280;11441;57.164;-2.120;2022-07-15T09:33:15;101328.81;;;16.61;100.00
22550;BME280;11441;57.164;-2.120;2022-07-15T09:36:09;101323.19;;;16.94;100.00
22550;BME280;11441;57.164;-2.120;2022-07-15T09:41:40;101325.66;;;17.03;100.00
22550;BME280;11441;57.164;-2.120;2022-07-15T09:44:11;101328.22;;;17.23;100.00
22550;BME280;11441;57.164;-2.120;2022-07-15T09:46:52;101326.03;;;16.98;100.00
22550;BME280;11441;57.164;-2.120;2022-07-15T09:51:52;101322.81;;;17.48;100.00
22550;BME280;11441;57.164;-2.120;2022-07-15T09:54:32;101331.06;;;17.30;100.00
22550;BME280;11441;57.164;-2.120;2022-07-15T09:57:01;101323.84;;;17.25;100.00
22550;BME280;11441;57.164;-2.120;2022-07-15T09:59:29;101316.53;;;17.58;100.00
22550;BME280;11441;57.164;-2.120;2022-07-15T10:02:20;101318.69;;;17.86;100.00
22550;BME280;11441;57.164;-2.120;2022-07-15T10:04:48;101316.25;;;17.85;100.00
22550;BME280;11441;57.164;-2.120;2022-07-15T10:07:21;101315.75;;;17.61;100.00
22550;BME280;11441;57.164;-2.120;2022-07-15T10:09:58;101319.88;;;17.23;100.00
22550;BME280;11441;57.164;-2.120;2022-07-15T10:13:05;101322.81;;;17.48;100.00
22550;BME280;11441;57.164;-2.120;2022-07-15T10:24:47;101314.97;;;17.64;100.00
22550;BME280;11441;57.164;-2.120;2022-07-15T10:27:32;101315.41;;;17.70;100.00
22550;BME280;11441;57.164;-2.120;2022-07-15T10:30:06;101318.06;;;18.22;100.00
22550;BME280;11441;57.164;-2.120;2022-07-15T10:35:39;101310.03;;;18.06;100.00
22550;BME280;11441;57.164;-2.120;2022-07-15T10:38:28;101315.16;;;17.97;100.00
22550;BME280;11441;57.164;-2.120;2022-07-15T10:43:50;101309.66;;;18.15;100.00
22550;BME280;11441;57.164;-2.120;2022-07-15T10:54:08;101333.16;;;17.47;100.00
22550;BME280;11441;57.164;-2.120;2022-07-15T10:59:24;101340.97;;;17.27;100.00
22550;BME280;11441;57.164;-2.120;2022-07-15T11:04:30;101341.53;;;17.47;100.00
22550;BME280;11441;57.164;-2.120;2022-07-15T11:09:50;101338.59;;;17.88;100.00
22550;BME280;11441;57.164;-2.120;2022-07-15T11:15:04;101349.34;;;17.34;100.00
22550;BME280;11441;57.164;-2.120;2022-07-15T11:20:04;101348.22;;;17.39;100.00
22550;BME280;11441;57.164;-2.120;2022-07-15T11:22:45;101351.56;;;17.63;100.00
22550;BME280;11441;57.164;-2.120;2022-07-15T11:28:15;101351.19;;;17.64;100.00
22550;BME280;11441;57.164;-2.120;2022-07-15T11:30:49;101348.97;;;17.92;100.00
22550;BME280;11441;57.164;-2.120;2022-07-15T11:33:24;101335.94;;;18.10;100.00
22550;BME280;11441;57.164;-2.120;2022-07-15T11:35:57;101341.91;;;18.08;100.00
22550;BME280;11441;57.164;-2.120;2022-07-15T11:38:30;101340.00;;;18.34;100.00
22550;BME280;11441;57.164;-2.120;2022-07-15T11:41:15;101347.88;;;18.14;100.00
22550;BME280;11441;57.164;-2.120;2022-07-15T11:44:05;101346.19;;;17.95;100.00
22550;BME280;11441;57.164;-2.120;2022-07-15T11:47:09;101351.41;;;18.04;100.00
22550;BME280;11441;57.164;-2.120;2022-07-15T11:49:38;101353.06;;;18.16;100.00
22550;BME280;11441;57.164;-2.120;2022-07-15T11:52:09;101350.81;;;18.54;100.00
22550;BME280;11441;57.164;-2.120;2022-07-15T11:54:38;101352.00;;;18.45;100.00
22550;BME280;11441;57.164;-2.120;2022-07-15T11:57:08;101364.31;;;18.37;100.00
22550;BME280;11441;57.164;-2.120;2022-07-15T11:59:57;101378.13;;;18.08;100.00
22550;BME280;11441;57.164;-2.120;2022-07-15T12:02:25;101374.97;;;18.10;100.00
22550;BME280;11441;57.164;-2.120;2022-07-15T12:05:11;101380.03;;;17.97;100.00
22550;BME280;11441;57.164;-2.120;2022-07-15T12:07:47;101379.94;;;17.83;100.00
22550;BME280;11441;57.164;-2.120;2022-07-15T12:10:15;101382.06;;;18.04;100.00
22550;BME280;11441;57.164;-2.120;2022-07-15T12:12:52;101367.91;;;17.64;100.00
22550;BME280;11441;57.164;-2.120;2022-07-15T12:15:21;101365.66;;;17.88;100.00
22550;BME280;11441;57.164;-2.120;2022-07-15T12:17:48;101375.97;;;17.84;100.00
22550;BME280;11441;57.164;-2.120;2022-07-15T12:20:16;101389.34;;;18.23;100.00
22550;BME280;11441;57.164;-2.120;2022-07-15T12:23:22;101378.09;;;17.98;100.00
22550;BME280;11441;57.164;-2.120;2022-07-15T12:26:07;101376.72;;;17.77;100.00
22550;BME280;11441;57.164;-2.120;2022-07-15T12:28:35;101372.81;;;17.85;100.00
22550;BME280;11441;57.164;-2.120;2022-07-15T12:31:04;101374.81;;;17.88;100.00
22550;BME280;11441;57.164;-2.120;2022-07-15T12:33:35;101362.63;;;18.15;100.00
22550;BME280;11441;57.164;-2.120;2022-07-15T12:36:16;101377.25;;;17.97;100.00
22550;BME280;11441;57.164;-2.120;2022-07-15T12:38:45;101364.88;;;17.87;100.00
22550;BME280;11441;57.164;-2.120;2022-07-15T12:41:28;101379.69;;;18.06;100.00
22550;BME280;11441;57.164;-2.120;2022-07-15T12:43:57;101381.34;;;18.14;100.00
22550;BME280;11441;57.164;-2.120;2022-07-15T12:46:47;101389.34;;;18.26;100.00
22550;BME280;11441;57.164;-2.120;2022-07-15T12:52:34;101396.53;;;18.27;100.00
22550;BME280;11441;57.164;-2.120;2022-07-15T12:55:20;101415.94;;;18.06;100.00
22550;BME280;11441;57.164;-2.120;2022-07-15T12:57:47;101414.41;;;18.16;100.00
22550;BME280;11441;57.164;-2.120;2022-07-15T13:00:21;101419.63;;;18.24;100.00
22550;BME280;11441;57.164;-2.120;2022-07-15T13:05:39;101425.63;;;17.71;100.00
22550;BME280;11441;57.164;-2.120;2022-07-15T13:08:12;101426.28;;;17.53;100.00
22550;BME280;11441;57.164;-2.120;2022-07-15T13:11:00;101421.91;;;17.52;100.00
22550;BME280;11441;57.164;-2.120;2022-07-15T13:13:30;101424.00;;;17.66;100.00
22550;BME280;11441;57.164;-2.120;2022-07-15T13:15:57;101427.44;;;18.01;100.00
22550;BME280;11441;57.164;-2.120;2022-07-15T13:18:26;101416.84;;;18.28;100.00
22550;BME280;11441;57.164;-2.120;2022-07-15T13:20:54;101440.75;;;18.25;100.00
22550;BME280;11441;57.164;-2.120;2022-07-15T13:23:22;101429.63;;;18.29;100.00
22550;BME280;11441;57.164;-2.120;2022-07-15T13:25:50;101452.44;;;17.86;100.00
22550;BME280;11441;57.164;-2.120;2022-07-15T13:28:18;101451.84;;;17.63;100.00
22550;BME280;11441;57.164;-2.120;2022-07-15T13:30:44;101456.19;;;17.60;100.00
22550;BME280;11441;57.164;-2.120;2022-07-15T13:33:12;101441.00;;;17.50;100.00
22550;BME280;11441;57.164;-2.120;2022-07-15T13:35:39;101456.38;;;17.85;100.00
22550;BME280;11441;57.164;-2.120;2022-07-15T13:38:06;101449.28;;;17.92;100.00
22550;BME280;11441;57.164;-2.120;2022-07-15T13:40:33;101456.56;;;18.07;100.00
22550;BME280;11441;57.164;-2.120;2022-07-15T13:43:00;101441.53;;;18.26;100.00
22550;BME280;11441;57.164;-2.120;2022-07-15T13:45:27;101436.13;;;18.62;100.00
22550;BME280;11441;57.164;-2.120;2022-07-15T13:47:54;101456.38;;;18.41;100.00
22550;BME280;11441;57.164;-2.120;2022-07-15T13:50:21;101459.47;;;18.32;100.00
22550;BME280;11441;57.164;-2.120;2022-07-15T13:53:07;101463.47;;;18.27;100.00
22550;BME280;11441;57.164;-2.120;2022-07-15T13:55:34;101466.28;;;18.38;100.00